Terminal Aerodrome Forecast
Issued by NWS Albuquerque, NM

Current Version | Previous Version | Text Only | Print | Product List | Glossary On
Versions: 1 2 3 4 5 6 7 8 9 10 11 12 13 14 15
000
FTUS45 KABQ 301124
TAFABQ
TAF
KABQ 301124Z 3012/3112 VRB05KT P6SM BKN200
     FM301900 20009KT P6SM SCT080
     FM310000 19014G20KT P6SM VCTS SCT080CB BKN150
      TEMPO 3100/3103 VRB18G28KT -SHRA BKN080
     FM310300 16012KT P6SM VCSH BKN080
     FM310600 VRB05KT P6SM SCT120=

USA.gov is the U.S. government's official web portal to all federal, state and local government web resources and services.